Time;durP1;ratioP1;P1;durP2;ratioP2;P2;SDS_P1;SDS_P2;PMS_P1;PMS_P2;Temp;Humidity;BMP_temperature;BMP_pressure;BME280_temperature;BME280_humidity;BME280_pressure;Samples;Min_cycle;Max_cycle;Signal;HPM_P1;HPM_P2
2022/02/22 00:01:47;;;;;;;21.20;19.85;;;7.30;74.70;;;;;;5073444;28;20280;-71
2022/02/22 00:04:14;;;;;;;22.15;20.63;;;7.30;74.80;;;;;;5073527;28;20206;-71
2022/02/22 00:06:41;;;;;;;22.58;21.17;;;7.30;74.80;;;;;;5073297;28;20721;-71
2022/02/22 00:09:08;;;;;;;21.17;19.90;;;7.30;74.90;;;;;;5073370;28;20200;-71
2022/02/22 00:11:35;;;;;;;21.73;20.05;;;7.30;74.80;;;;;;5073361;28;20314;-71
2022/02/22 00:14:03;;;;;;;21.23;19.92;;;7.40;74.60;;;;;;5072472;28;20200;-71
2022/02/22 00:16:30;;;;;;;21.35;19.98;;;7.40;74.20;;;;;;5073269;28;20210;-71
2022/02/22 00:18:57;;;;;;;20.88;19.73;;;7.30;74.30;;;;;;5073246;28;20288;-72
2022/02/22 00:21:24;;;;;;;21.90;20.27;;;7.30;74.10;;;;;;5073045;28;20212;-71
2022/02/22 00:23:51;;;;;;;22.15;20.65;;;7.20;73.90;;;;;;5073189;28;20199;-72
2022/02/22 00:26:19;;;;;;;21.50;20.20;;;7.20;74.30;;;;;;5073107;28;20192;-72
2022/02/22 00:28:46;;;;;;;22.33;20.88;;;7.20;73.80;;;;;;5072816;28;20240;-71
2022/02/22 00:31:14;;;;;;;21.83;20.42;;;7.30;74.10;;;;;;5072949;28;20310;-72
2022/02/22 00:33:41;;;;;;;21.02;19.75;;;7.10;74.50;;;;;;5072879;28;20771;-71
2022/02/22 00:36:08;;;;;;;22.15;20.73;;;7.20;75.60;;;;;;5072942;28;20210;-72
2022/02/22 00:38:35;;;;;;;21.13;19.80;;;7.10;75.70;;;;;;5072949;28;20252;-72
2022/02/22 00:41:02;;;;;;;21.77;20.10;;;7.00;75.90;;;;;;5072648;28;20218;-71
2022/02/22 00:43:29;;;;;;;22.08;20.50;;;7.10;75.50;;;;;;5072984;28;20194;-71
2022/02/22 00:45:56;;;;;;;21.50;20.17;;;7.10;75.00;;;;;;5072845;28;20566;-71
2022/02/22 00:48:24;;;;;;;21.65;20.10;;;7.10;75.10;;;;;;5088896;22;20226;-72
2022/02/22 00:50:51;;;;;;;20.75;19.55;;;7.10;74.20;;;;;;5092713;28;20305;-72
2022/02/22 00:53:19;;;;;;;21.38;19.90;;;7.10;74.40;;;;;;5092848;28;20271;-72
2022/02/22 00:55:46;;;;;;;21.70;20.23;;;7.10;74.20;;;;;;5092869;28;20604;-72
2022/02/22 00:58:13;;;;;;;21.27;20.05;;;7.10;73.80;;;;;;5092816;28;20230;-72
2022/02/22 01:00:40;;;;;;;20.27;19.08;;;7.20;73.80;;;;;;5092780;28;20607;-72
2022/02/22 01:03:06;;;;;;;22.27;20.30;;;7.10;73.50;;;;;;5093082;28;20219;-72
2022/02/22 01:05:35;;;;;;;21.42;19.95;;;7.10;73.60;;;;;;5093001;28;20205;-71
2022/02/22 01:08:02;;;;;;;20.77;19.50;;;7.10;73.70;;;;;;5092791;28;20603;-72
2022/02/22 01:10:29;;;;;;;21.25;19.98;;;7.00;73.60;;;;;;5092437;28;20202;-72
2022/02/22 01:12:56;;;;;;;21.27;20.00;;;6.90;73.60;;;;;;5092887;28;20229;-72
2022/02/22 01:15:23;;;;;;;21.77;20.10;;;6.80;73.30;;;;;;5092783;28;20204;-72
2022/02/22 01:17:50;;;;;;;21.60;20.25;;;6.90;73.00;;;;;;5092737;28;20282;-72
2022/02/22 01:20:17;;;;;;;20.88;19.67;;;6.80;73.00;;;;;;5092497;28;20302;-72
2022/02/22 01:22:46;;;;;;;20.95;19.75;;;6.80;73.30;;;;;;5092817;28;20207;-72
2022/02/22 01:25:13;;;;;;;21.23;19.95;;;6.80;73.40;;;;;;5093453;28;20196;-71
2022/02/22 01:27:40;;;;;;;20.50;19.30;;;6.80;73.10;;;;;;5096768;28;20574;-72
2022/02/22 01:30:08;;;;;;;20.70;19.45;;;6.90;73.20;;;;;;5096309;28;20195;-72
2022/02/22 01:32:36;;;;;;;21.00;19.60;;;6.90;73.40;;;;;;5096641;28;20225;-72
2022/02/22 01:35:03;;;;;;;22.00;20.60;;;6.80;74.00;;;;;;5096484;28;20193;-72
2022/02/22 01:37:30;;;;;;;21.30;19.55;;;7.00;74.00;;;;;;5096621;28;20199;-72
2022/02/22 01:39:58;;;;;;;19.92;18.70;;;6.80;74.30;;;;;;5096370;28;20225;-72
2022/02/22 01:42:25;;;;;;;21.75;20.30;;;6.90;74.60;;;;;;5096565;28;20301;-71
2022/02/22 01:44:52;;;;;;;21.25;19.95;;;7.00;75.10;;;;;;5096573;28;20225;-72
2022/02/22 01:47:19;;;;;;;21.92;20.63;;;7.00;75.90;;;;;;5096431;28;20202;-72
2022/02/22 01:49:48;;;;;;;21.50;19.95;;;6.90;77.00;;;;;;5096174;28;20313;-72
2022/02/22 01:52:16;;;;;;;21.73;20.02;;;6.80;78.30;;;;;;5096347;28;20223;-72
2022/02/22 01:54:43;;;;;;;22.00;20.10;;;6.60;78.60;;;;;;5096291;28;20544;-72
2022/02/22 01:57:12;;;;;;;21.85;19.98;;;6.40;79.20;;;;;;5096267;28;20280;-72
2022/02/22 01:59:39;;;;;;;20.38;19.00;;;6.30;79.60;;;;;;5096082;28;20212;-71
2022/02/22 02:02:06;;;;;;;21.10;19.80;;;6.30;80.20;;;;;;5096299;28;20234;-72
2022/02/22 02:04:32;;;;;;;20.95;19.85;;;6.30;79.90;;;;;;5096002;28;20297;-72
2022/02/22 02:07:00;;;;;;;20.60;19.30;;;6.40;79.30;;;;;;5095975;28;20204;-71
2022/02/22 02:09:27;;;;;;;23.10;21.38;;;6.20;78.90;;;;;;5095827;28;20201;-71
2022/02/22 02:11:55;;;;;;;21.52;20.23;;;6.20;79.00;;;;;;5096035;28;20291;-71
2022/02/22 02:14:25;;;;;;;20.85;19.30;;;6.30;78.50;;;;;;5095797;28;20221;-71
2022/02/22 02:16:52;;;;;;;20.40;19.30;;;6.30;78.50;;;;;;5095846;28;20202;-72
2022/02/22 02:19:19;;;;;;;21.33;19.80;;;6.30;77.60;;;;;;5095689;28;20206;-71
2022/02/22 02:21:47;;;;;;;21.52;19.90;;;6.30;77.90;;;;;;5095680;28;20250;-72
2022/02/22 02:24:18;;;;;;;20.75;19.35;;;6.40;77.70;;;;;;5095901;28;20233;-72
2022/02/22 02:26:45;;;;;;;20.63;19.40;;;6.30;77.60;;;;;;5095786;28;20202;-71
2022/02/22 02:29:13;;;;;;;21.05;19.55;;;6.30;77.60;;;;;;5095357;28;20565;-71
2022/02/22 02:31:43;;;;;;;21.73;20.13;;;6.30;77.50;;;;;;5095587;28;20301;-72
2022/02/22 02:34:12;;;;;;;21.10;19.80;;;6.20;78.00;;;;;;5095361;28;20214;-72
2022/02/22 02:36:40;;;;;;;20.75;19.45;;;6.20;78.00;;;;;;5094947;28;20208;-72
2022/02/22 02:39:08;;;;;;;21.30;19.80;;;6.20;78.20;;;;;;5095369;28;20198;-72
2022/02/22 02:41:37;;;;;;;21.38;19.98;;;6.20;78.30;;;;;;5095417;28;20223;-71
2022/02/22 02:44:06;;;;;;;21.00;19.60;;;6.20;78.20;;;;;;5095225;28;20198;-72
2022/02/22 02:46:33;;;;;;;21.85;20.20;;;6.20;78.60;;;;;;5095380;28;20202;-71
2022/02/22 02:49:00;;;;;;;21.90;20.17;;;6.00;79.10;;;;;;5095186;28;20209;-71
2022/02/22 02:51:27;;;;;;;20.77;19.70;;;6.10;78.90;;;;;;5095110;28;20267;-71
2022/02/22 02:53:55;;;;;;;21.05;19.65;;;6.10;79.10;;;;;;5095285;28;20229;-71
2022/02/22 02:56:24;;;;;;;22.63;20.85;;;6.10;78.10;;;;;;5095130;28;20294;-72
2022/02/22 02:58:53;;;;;;;22.83;20.70;;;6.10;77.70;;;;;;5095237;28;20205;-71
2022/02/22 03:01:21;;;;;;;22.05;20.35;;;6.10;77.70;;;;;;5094928;28;20217;-71
2022/02/22 03:03:48;;;;;;;22.48;20.23;;;6.10;77.20;;;;;;5095036;28;20201;-71
2022/02/22 03:06:15;;;;;;;21.55;19.90;;;6.00;77.70;;;;;;5095025;28;20280;-71
2022/02/22 03:08:42;;;;;;;22.10;20.50;;;5.90;77.60;;;;;;5094955;28;20197;-71
2022/02/22 03:11:10;;;;;;;20.85;19.58;;;5.90;77.40;;;;;;5094702;28;20308;-71
2022/02/22 03:13:37;;;;;;;21.33;19.98;;;6.00;77.10;;;;;;5094712;28;20256;-71
2022/02/22 03:16:07;;;;;;;21.35;19.95;;;6.10;76.40;;;;;;5094750;28;20255;-71
2022/02/22 03:18:34;;;;;;;20.40;19.10;;;6.10;76.60;;;;;;5094609;28;20293;-71
2022/02/22 03:21:01;;;;;;;21.50;20.20;;;6.10;76.50;;;;;;5094364;28;20284;-71
2022/02/22 03:23:28;;;;;;;21.52;20.10;;;6.10;76.40;;;;;;5094718;28;20280;-71
2022/02/22 03:25:56;;;;;;;22.08;20.75;;;6.20;76.40;;;;;;5094950;28;20200;-71
2022/02/22 03:28:23;;;;;;;21.70;20.30;;;6.20;76.00;;;;;;5094790;28;20391;-71
2022/02/22 03:30:50;;;;;;;21.23;19.95;;;6.10;76.10;;;;;;5094508;28;20221;-71
2022/02/22 03:33:20;;;;;;;22.98;21.58;;;6.10;76.20;;;;;;5094525;28;20218;-71
2022/02/22 03:35:47;;;;;;;22.48;20.58;;;6.00;76.10;;;;;;5094479;28;20677;-71
2022/02/22 03:38:14;;;;;;;23.40;21.40;;;6.00;76.80;;;;;;5094488;28;20275;-71
2022/02/22 03:40:41;;;;;;;21.23;19.75;;;6.00;76.80;;;;;;5094047;28;20307;-71
2022/02/22 03:43:08;;;;;;;21.63;20.10;;;6.10;76.80;;;;;;5094412;28;20189;-71
2022/02/22 03:45:35;;;;;;;21.70;20.35;;;6.10;77.20;;;;;;5094458;28;20202;-71
2022/02/22 03:48:02;;;;;;;22.38;20.58;;;6.10;77.10;;;;;;5093841;28;20292;-71
2022/02/22 03:50:31;;;;;;;21.42;19.88;;;6.10;77.30;;;;;;5093199;28;20254;-71
2022/02/22 03:52:57;;;;;;;21.45;19.95;;;6.00;77.40;;;;;;5093954;28;20209;-72
2022/02/22 03:55:24;;;;;;;21.92;20.50;;;6.00;77.70;;;;;;5093951;28;20200;-71
2022/02/22 03:57:52;;;;;;;21.88;20.05;;;6.10;77.60;;;;;;5093994;28;20689;-71
2022/02/22 04:00:21;;;;;;;22.00;20.52;;;6.10;77.70;;;;;;5093698;28;20654;-71
2022/02/22 04:02:48;;;;;;;21.60;20.30;;;6.10;77.70;;;;;;5094026;28;20228;-71
2022/02/22 04:05:16;;;;;;;22.60;20.83;;;6.10;77.90;;;;;;5093912;28;20285;-71
2022/02/22 04:07:45;;;;;;;23.38;21.67;;;6.10;78.30;;;;;;5093696;28;20197;-71
2022/02/22 04:10:13;;;;;;;22.98;21.00;;;6.00;78.10;;;;;;5093566;28;20229;-71
2022/02/22 04:12:40;;;;;;;23.55;21.90;;;6.10;78.00;;;;;;5093531;28;20710;-71
2022/02/22 04:15:10;;;;;;;21.42;19.85;;;6.20;77.80;;;;;;5093578;28;20217;-71
2022/02/22 04:17:37;;;;;;;23.20;21.58;;;6.10;77.00;;;;;;5094007;28;20202;-71
2022/02/22 04:20:06;;;;;;;24.88;23.20;;;6.00;77.80;;;;;;5093323;28;20202;-71
2022/02/22 04:22:33;;;;;;;22.20;20.60;;;6.10;77.50;;;;;;5093459;28;20762;-71
2022/02/22 04:25:01;;;;;;;23.55;21.75;;;6.10;77.60;;;;;;5093464;28;20259;-72
2022/02/22 04:27:28;;;;;;;22.30;20.88;;;6.10;77.70;;;;;;5093308;28;20227;-71
2022/02/22 04:29:55;;;;;;;23.23;21.60;;;6.10;77.90;;;;;;5092958;28;20220;-71
2022/02/22 04:32:22;;;;;;;23.23;21.40;;;6.10;78.20;;;;;;5093255;28;20321;-71
2022/02/22 04:34:49;;;;;;;25.67;24.27;;;6.00;78.70;;;;;;5093134;28;20307;-71
2022/02/22 04:37:16;;;;;;;22.35;20.95;;;6.00;78.90;;;;;;5093156;28;20200;-71
2022/02/22 04:39:44;;;;;;;24.60;22.80;;;6.00;80.80;;;;;;5093070;28;20198;-71
2022/02/22 04:42:12;;;;;;;23.05;21.45;;;6.10;79.80;;;;;;5093232;28;20222;-72
2022/02/22 04:44:40;;;;;;;22.15;20.70;;;6.20;78.70;;;;;;5093118;28;20216;-71
2022/02/22 04:47:07;;;;;;;23.50;21.80;;;6.00;78.50;;;;;;5093053;28;20198;-71
2022/02/22 04:49:34;;;;;;;23.40;21.60;;;6.00;78.70;;;;;;5092799;28;20230;-71
2022/02/22 04:52:02;;;;;;;23.52;21.45;;;6.00;78.20;;;;;;5092891;28;20222;-71
2022/02/22 04:54:29;;;;;;;23.33;21.88;;;5.90;78.10;;;;;;5092814;28;20218;-72
2022/02/22 04:56:56;;;;;;;24.10;22.67;;;5.80;78.50;;;;;;5092973;28;20202;-71
2022/02/22 04:59:25;;;;;;;22.63;21.23;;;5.80;79.00;;;;;;5092692;28;20727;-71
2022/02/22 05:01:52;;;;;;;24.33;22.60;;;5.70;79.30;;;;;;5092599;28;20308;-71
2022/02/22 05:04:19;;;;;;;23.25;21.60;;;5.80;79.20;;;;;;5093069;28;20194;-71
2022/02/22 05:06:46;;;;;;;24.52;22.38;;;5.80;79.10;;;;;;5092763;28;20231;-72
2022/02/22 05:09:13;;;;;;;22.83;21.35;;;5.80;79.10;;;;;;5092708;28;20198;-71
2022/02/22 05:11:40;;;;;;;22.45;21.02;;;5.80;79.20;;;;;;5092720;28;20250;-72
2022/02/22 05:14:07;;;;;;;22.85;21.35;;;5.80;79.60;;;;;;5092754;28;20308;-71
2022/02/22 05:16:37;;;;;;;23.40;21.63;;;5.80;79.30;;;;;;5092834;28;20230;-71
2022/02/22 05:19:04;;;;;;;23.58;22.15;;;5.80;79.50;;;;;;5092627;28;20199;-71
2022/02/22 05:21:31;;;;;;;24.38;22.55;;;5.70;80.40;;;;;;5092490;28;20221;-71
2022/02/22 05:23:58;;;;;;;22.95;21.55;;;5.70;80.20;;;;;;5092683;28;20292;-71
2022/02/22 05:26:25;;;;;;;22.67;21.38;;;5.60;80.20;;;;;;5092580;28;20262;-72
2022/02/22 05:28:52;;;;;;;24.50;22.55;;;5.50;80.00;;;;;;5092470;28;20293;-71
2022/02/22 05:31:19;;;;;;;25.30;23.67;;;5.40;80.50;;;;;;5092389;28;20227;-71
2022/02/22 05:33:48;;;;;;;23.73;22.15;;;5.50;80.60;;;;;;5092369;28;20218;-71
2022/02/22 05:36:15;;;;;;;23.00;21.40;;;5.60;80.30;;;;;;5092506;28;20198;-71
2022/02/22 05:38:41;;;;;;;23.55;21.92;;;5.60;80.10;;;;;;5092456;28;20251;-72
2022/02/22 05:41:08;;;;;;;24.65;22.65;;;5.40;80.30;;;;;;5092266;28;20694;-72
2022/02/22 05:43:35;;;;;;;23.85;22.33;;;5.40;80.20;;;;;;5092545;28;20658;-71
2022/02/22 05:46:02;;;;;;;23.25;21.60;;;5.40;80.10;;;;;;5092451;28;20620;-71
2022/02/22 05:48:29;;;;;;;24.90;23.20;;;5.50;80.00;;;;;;5092252;28;20663;-71
2022/02/22 05:50:57;;;;;;;26.10;24.23;;;5.50;80.00;;;;;;5092400;28;20377;-71
2022/02/22 05:53:24;;;;;;;24.13;22.52;;;5.50;79.80;;;;;;5092593;28;20194;-71
2022/02/22 05:55:51;;;;;;;23.48;21.65;;;5.50;79.70;;;;;;5092367;28;20198;-72
2022/02/22 05:58:18;;;;;;;24.13;22.45;;;5.50;79.80;;;;;;5092326;28;20202;-72
2022/02/22 06:00:45;;;;;;;22.60;21.08;;;5.40;79.60;;;;;;5092011;28;20212;-71
2022/02/22 06:03:12;;;;;;;25.73;23.55;;;5.40;79.50;;;;;;5092553;28;20558;-71
2022/02/22 06:05:38;;;;;;;24.73;23.10;;;5.50;79.30;;;;;;5092270;28;20654;-71
2022/02/22 06:08:07;;;;;;;22.60;21.10;;;5.50;79.20;;;;;;5092136;28;20297;-71
2022/02/22 06:10:34;;;;;;;23.60;21.85;;;5.40;78.80;;;;;;5091951;28;20201;-71
2022/02/22 06:13:00;;;;;;;23.98;22.30;;;5.40;79.40;;;;;;5094062;28;20255;-71
2022/02/22 06:15:27;;;;;;;23.40;21.70;;;5.40;79.50;;;;;;5095931;28;20699;-71
2022/02/22 06:17:54;;;;;;;25.38;23.58;;;5.30;80.80;;;;;;5095941;28;20197;-71
2022/02/22 06:20:21;;;;;;;24.42;22.90;;;5.30;79.80;;;;;;5095540;28;20291;-71
2022/02/22 06:22:48;;;;;;;23.75;21.98;;;5.30;79.80;;;;;;5095852;28;20233;-71
2022/02/22 06:25:17;;;;;;;23.77;21.95;;;5.30;79.60;;;;;;5095773;28;20281;-71
2022/02/22 06:27:48;;;;;;;24.25;22.83;;;5.30;79.70;;;;;;5095673;28;20207;-71
2022/02/22 06:30:16;;;;;;;26.33;24.40;;;5.30;79.80;;;;;;5095307;28;20202;-71
2022/02/22 06:32:43;;;;;;;24.35;22.75;;;5.40;81.30;;;;;;5096049;28;20313;-71
2022/02/22 06:35:10;;;;;;;24.25;22.48;;;5.40;80.60;;;;;;5095432;28;20228;-71
2022/02/22 06:37:37;;;;;;;22.40;20.95;;;5.50;79.90;;;;;;5095546;28;20681;-71
2022/02/22 06:40:07;;;;;;;23.55;21.85;;;5.50;79.50;;;;;;5095363;28;20206;-71
2022/02/22 06:42:36;;;;;;;23.10;21.38;;;5.50;79.70;;;;;;5095412;28;20217;-71
2022/02/22 06:45:04;;;;;;;23.08;21.20;;;5.50;79.90;;;;;;5095352;28;20290;-71
2022/02/22 06:47:32;;;;;;;25.67;23.88;;;5.50;80.20;;;;;;5095214;28;20285;-71
2022/02/22 06:49:59;;;;;;;24.63;23.27;;;5.50;80.70;;;;;;5095037;28;20666;-71
2022/02/22 06:52:26;;;;;;;23.05;21.65;;;5.50;80.50;;;;;;5095325;28;20228;-71
2022/02/22 06:54:53;;;;;;;23.08;21.40;;;5.60;80.20;;;;;;5095090;28;20222;-72
2022/02/22 06:57:20;;;;;;;23.15;21.45;;;5.60;80.00;;;;;;5094981;28;20204;-71
2022/02/22 06:59:48;;;;;;;23.48;21.73;;;5.70;79.70;;;;;;5094950;28;20220;-71
2022/02/22 07:02:15;;;;;;;22.30;20.80;;;5.60;80.70;;;;;;5095127;28;20787;-71
2022/02/22 07:04:42;;;;;;;24.73;23.30;;;5.70;81.50;;;;;;5094833;28;20205;-72
2022/02/22 07:07:08;;;;;;;23.98;22.02;;;5.60;80.90;;;;;;5094731;28;20253;-71
2022/02/22 07:09:35;;;;;;;22.95;21.50;;;5.70;80.30;;;;;;5094754;28;20285;-72
2022/02/22 07:12:03;;;;;;;24.10;22.40;;;5.70;79.70;;;;;;5094885;28;20553;-71
2022/02/22 07:14:29;;;;;;;23.75;22.10;;;5.80;79.50;;;;;;5094740;28;20253;-72
2022/02/22 07:16:59;;;;;;;26.50;24.67;;;5.70;80.00;;;;;;5094595;28;20202;-72
2022/02/22 07:19:26;;;;;;;25.55;23.45;;;5.80;80.20;;;;;;5094509;28;20558;-71
2022/02/22 07:21:53;;;;;;;28.02;25.52;;;5.80;79.60;;;;;;5094733;28;20702;-71
2022/02/22 07:24:20;;;;;;;24.17;22.00;;;5.90;79.70;;;;;;5094297;28;20208;-71
2022/02/22 07:26:47;;;;;;;25.98;24.17;;;6.00;78.80;;;;;;5094720;28;20196;-71
2022/02/22 07:29:13;;;;;;;26.02;24.15;;;6.00;78.40;;;;;;5094215;28;20199;-72
2022/02/22 07:31:40;;;;;;;23.20;21.55;;;6.10;80.70;;;;;;5094271;28;20217;-71
2022/02/22 07:34:08;;;;;;;26.05;24.27;;;6.30;78.40;;;;;;5094178;28;20232;-72
2022/02/22 07:36:35;;;;;;;24.20;22.50;;;6.40;76.80;;;;;;5094402;28;20198;-71
2022/02/22 07:39:05;;;;;;;24.65;22.90;;;6.50;76.90;;;;;;5094290;28;20222;-72
2022/02/22 07:41:32;;;;;;;24.85;22.90;;;6.60;76.30;;;;;;5094219;28;20251;-71
2022/02/22 07:43:59;;;;;;;24.20;22.58;;;6.60;75.60;;;;;;5094298;28;20217;-72
2022/02/22 07:46:26;;;;;;;25.73;23.80;;;6.50;76.00;;;;;;5094102;28;20194;-72
2022/02/22 07:48:52;;;;;;;24.25;22.30;;;6.60;75.60;;;;;;5093895;28;20297;-72
2022/02/22 07:51:21;;;;;;;25.48;24.15;;;6.50;76.50;;;;;;5093977;28;20219;-71
2022/02/22 07:53:49;;;;;;;24.25;22.38;;;6.40;77.50;;;;;;5094159;28;20199;-71
2022/02/22 07:56:16;;;;;;;24.48;22.48;;;6.60;76.30;;;;;;5093957;28;20710;-72
2022/02/22 07:58:44;;;;;;;25.23;23.25;;;6.70;75.70;;;;;;5094031;28;20237;-71
2022/02/22 08:01:11;;;;;;;25.65;24.02;;;6.70;75.60;;;;;;5093728;28;20223;-72
2022/02/22 08:03:39;;;;;;;24.38;22.80;;;6.80;74.80;;;;;;5093946;28;20245;-71
2022/02/22 08:06:05;;;;;;;24.52;22.27;;;6.90;74.10;;;;;;5093815;28;20199;-72
2022/02/22 08:08:34;;;;;;;23.90;22.30;;;6.90;74.00;;;;;;5093629;28;20206;-71
2022/02/22 08:11:01;;;;;;;25.70;23.73;;;7.00;73.50;;;;;;5093526;28;20226;-72
2022/02/22 08:13:28;;;;;;;27.00;25.08;;;7.10;72.60;;;;;;5093707;28;20283;-71
2022/02/22 08:15:54;;;;;;;24.33;22.17;;;7.10;72.80;;;;;;5093776;28;20306;-71
2022/02/22 08:18:21;;;;;;;25.85;23.75;;;7.10;72.70;;;;;;5093709;28;20292;-72
2022/02/22 08:20:48;;;;;;;23.42;21.92;;;7.20;72.10;;;;;;5093395;28;20217;-71
2022/02/22 08:23:15;;;;;;;25.52;23.30;;;7.10;72.60;;;;;;5093528;28;20540;-71
2022/02/22 08:25:43;;;;;;;24.77;22.67;;;7.30;72.00;;;;;;5093502;28;20209;-72
2022/02/22 08:28:12;;;;;;;27.17;25.00;;;7.40;71.90;;;;;;5093250;28;20209;-72
2022/02/22 08:30:39;;;;;;;27.20;24.92;;;7.60;71.20;;;;;;5093168;28;20257;-72
2022/02/22 08:33:07;;;;;;;26.92;24.73;;;7.60;70.70;;;;;;5093467;28;20211;-71
2022/02/22 08:35:34;;;;;;;26.30;24.50;;;7.80;70.70;;;;;;5092559;28;20222;-72
2022/02/22 08:38:01;;;;;;;28.83;26.17;;;7.70;69.90;;;;;;5093224;28;20195;-72
2022/02/22 08:40:29;;;;;;;27.17;25.17;;;7.80;70.50;;;;;;5092929;28;20198;-72
2022/02/22 08:42:57;;;;;;;25.67;23.52;;;7.80;70.00;;;;;;5093261;28;20656;-72
2022/02/22 08:45:25;;;;;;;26.73;24.70;;;7.90;69.80;;;;;;5093387;28;20226;-72
2022/02/22 08:47:53;;;;;;;25.52;23.55;;;8.10;69.80;;;;;;5092903;28;20210;-72
2022/02/22 08:50:20;;;;;;;26.90;24.88;;;8.30;69.30;;;;;;5093037;28;20287;-72
2022/02/22 08:52:48;;;;;;;26.10;24.15;;;8.30;68.50;;;;;;5093045;28;20195;-72
2022/02/22 08:55:15;;;;;;;27.50;25.52;;;8.40;69.20;;;;;;5092942;28;20650;-72
2022/02/22 08:57:42;;;;;;;26.10;24.30;;;8.40;68.90;;;;;;5092904;28;20294;-72
2022/02/22 09:00:12;;;;;;;25.52;23.85;;;8.50;68.70;;;;;;5092883;28;20206;-71
2022/02/22 09:02:39;;;;;;;25.77;24.05;;;8.70;68.50;;;;;;5093128;28;20696;-71
2022/02/22 09:05:07;;;;;;;26.63;24.83;;;8.70;68.20;;;;;;5092971;28;20245;-72
2022/02/22 09:07:34;;;;;;;25.63;23.45;;;8.70;67.90;;;;;;5092859;28;20203;-72
2022/02/22 09:10:01;;;;;;;26.95;24.92;;;8.40;68.50;;;;;;5092624;28;20290;-71
2022/02/22 09:12:28;;;;;;;24.85;23.10;;;8.30;69.20;;;;;;5092996;28;20215;-71
2022/02/22 09:14:55;;;;;;;24.25;22.50;;;8.30;69.60;;;;;;5092749;28;20216;-71
2022/02/22 09:17:24;;;;;;;25.25;23.45;;;8.40;69.60;;;;;;5092903;28;20198;-72
2022/02/22 09:19:51;;;;;;;23.45;21.85;;;8.50;69.00;;;;;;5092628;28;20200;-72
2022/02/22 09:22:18;;;;;;;25.95;24.20;;;8.50;68.90;;;;;;5092645;28;20262;-72
2022/02/22 09:24:45;;;;;;;25.52;23.10;;;8.60;69.10;;;;;;5092761;28;20199;-72
2022/02/22 09:27:11;;;;;;;26.10;24.15;;;8.60;69.10;;;;;;5092703;28;20230;-72
2022/02/22 09:29:38;;;;;;;25.15;23.55;;;8.60;69.40;;;;;;5092380;28;20677;-72
2022/02/22 09:32:06;;;;;;;24.95;23.00;;;8.80;69.30;;;;;;5092445;28;20726;-72
2022/02/22 09:34:34;;;;;;;23.33;21.83;;;9.00;68.90;;;;;;5092306;28;20201;-72
2022/02/22 09:37:03;;;;;;;27.15;24.50;;;9.00;69.00;;;;;;5092374;28;20200;-72
2022/02/22 09:39:31;;;;;;;23.10;21.55;;;9.10;69.00;;;;;;5092324;28;20218;-72
2022/02/22 09:41:58;;;;;;;25.63;23.98;;;9.10;67.90;;;;;;5092573;28;20255;-72
2022/02/22 09:44:25;;;;;;;25.10;23.25;;;9.10;68.00;;;;;;5092369;28;20245;-72
2022/02/22 09:46:52;;;;;;;24.77;23.17;;;9.10;67.90;;;;;;5094493;28;20241;-72
2022/02/22 09:49:19;;;;;;;25.83;24.20;;;9.10;70.00;;;;;;5096217;28;20676;-72
2022/02/22 09:51:48;;;;;;;24.50;22.83;;;9.10;68.10;;;;;;5096262;28;20215;-72
2022/02/22 09:54:15;;;;;;;25.17;23.42;;;9.00;68.40;;;;;;5096357;28;20195;-72
2022/02/22 09:56:43;;;;;;;24.63;23.02;;;9.10;68.80;;;;;;5096304;28;20251;-72
2022/02/22 09:59:11;;;;;;;25.13;23.55;;;9.10;68.20;;;;;;5096085;28;20192;-72
2022/02/22 10:01:39;;;;;;;25.83;23.95;;;9.30;67.60;;;;;;5096162;28;20225;-72
2022/02/22 10:04:07;;;;;;;25.73;24.00;;;9.30;67.90;;;;;;5096130;28;20195;-72
2022/02/22 10:06:34;;;;;;;25.33;23.50;;;9.30;67.20;;;;;;5096263;28;20192;-72
2022/02/22 10:09:03;;;;;;;26.08;24.15;;;9.30;66.70;;;;;;5096033;28;20195;-72
2022/02/22 10:11:30;;;;;;;26.23;24.38;;;9.10;67.10;;;;;;5095994;28;20215;-72
2022/02/22 10:14:01;;;;;;;24.65;23.15;;;9.30;69.00;;;;;;5096040;28;20238;-72
2022/02/22 10:16:41;;;;;;;24.60;22.90;;;9.40;67.50;;;;;;5095804;28;20220;-72
2022/02/22 10:19:08;;;;;;;25.98;24.17;;;9.80;66.30;;;;;;5095757;28;20475;-72
2022/02/22 10:21:42;;;;;;;24.10;22.40;;;10.00;65.70;;;;;;5095988;28;20225;-72
2022/02/22 10:24:12;;;;;;;24.77;22.83;;;10.20;65.60;;;;;;5095887;28;20450;-72
2022/02/22 10:26:40;;;;;;;24.40;22.70;;;10.20;68.30;;;;;;5095609;28;20453;-71
2022/02/22 10:29:14;;;;;;;24.80;22.90;;;10.20;65.30;;;;;;5095297;28;20449;-72
2022/02/22 10:31:41;;;;;;;26.63;25.02;;;10.20;65.60;;;;;;5095575;28;20471;-72
2022/02/22 10:34:09;;;;;;;24.90;23.00;;;10.20;65.30;;;;;;5095386;28;20288;-71
2022/02/22 10:36:38;;;;;;;27.67;25.63;;;10.20;65.50;;;;;;5095538;28;20496;-71
2022/02/22 10:39:06;;;;;;;28.70;26.50;;;10.20;65.30;;;;;;5095364;28;20457;-72
2022/02/22 10:41:39;;;;;;;24.77;23.27;;;10.10;65.90;;;;;;5095484;28;20512;-71
2022/02/22 10:44:08;;;;;;;25.10;23.40;;;9.90;66.50;;;;;;5095378;28;20667;-72
2022/02/22 10:46:37;;;;;;;26.77;24.77;;;9.80;67.10;;;;;;5095339;28;20453;-72
2022/02/22 10:49:07;;;;;;;23.83;22.10;;;9.80;67.20;;;;;;5095196;28;20741;-72
2022/02/22 10:51:41;;;;;;;24.80;22.73;;;10.10;66.80;;;;;;5095168;28;20470;-72
2022/02/22 10:54:09;;;;;;;24.97;23.07;;;10.20;66.00;;;;;;5095333;28;20508;-72
2022/02/22 10:56:37;;;;;;;24.83;22.83;;;10.50;66.60;;;;;;5095095;28;20561;-72
2022/02/22 10:59:05;;;;;;;24.73;23.03;;;10.70;65.40;;;;;;5094649;28;20483;-72
2022/02/22 11:01:32;;;;;;;26.03;24.33;;;10.80;65.10;;;;;;5095186;28;20500;-72
2022/02/22 11:03:59;;;;;;;26.17;24.43;;;11.00;64.40;;;;;;5095212;28;20460;-72
2022/02/22 11:06:26;;;;;;;25.50;23.50;;;11.10;64.30;;;;;;5095039;28;20557;-72
2022/02/22 11:08:56;;;;;;;27.50;25.57;;;11.00;64.20;;;;;;5095391;28;20458;-72
2022/02/22 11:11:33;;;;;;;25.40;23.53;;;10.90;64.10;;;;;;5094858;28;20473;-72
2022/02/22 11:14:05;;;;;;;25.50;23.90;;;10.60;64.50;;;;;;5095323;28;20533;-72
2022/02/22 11:16:41;;;;;;;24.87;22.90;;;10.10;65.70;;;;;;5095481;28;20880;-72
2022/02/22 11:19:15;;;;;;;24.60;22.77;;;10.10;66.40;;;;;;5095521;28;20468;-72
2022/02/22 11:21:43;;;;;;;25.83;23.93;;;9.90;67.60;;;;;;5095086;28;20226;-72
2022/02/22 11:24:11;;;;;;;24.30;22.60;;;9.90;67.00;;;;;;5094966;28;20448;-72
2022/02/22 11:26:51;;;;;;;24.30;22.80;;;10.10;67.20;;;;;;5095490;28;20500;-72
2022/02/22 11:29:21;;;;;;;27.33;25.10;;;10.20;66.10;;;;;;5095285;28;20529;-72
2022/02/22 11:32:00;;;;;;;26.70;24.80;;;10.20;67.20;;;;;;5095788;28;20558;-72
2022/02/22 11:34:32;;;;;;;24.13;22.60;;;10.60;66.30;;;;;;5094294;28;20954;-72
2022/02/22 11:37:02;;;;;;;25.47;23.30;;;10.60;65.70;;;;;;5094359;28;20474;-72
2022/02/22 11:39:30;;;;;;;25.87;24.20;;;10.70;65.80;;;;;;5094090;28;20946;-72
2022/02/22 11:41:59;;;;;;;26.67;24.50;;;10.80;65.40;;;;;;5094263;28;20481;-72
2022/02/22 11:44:27;;;;;;;25.27;23.50;;;10.70;64.50;;;;;;5094327;28;20458;-72
2022/02/22 11:46:56;;;;;;;25.93;23.90;;;10.70;65.70;;;;;;5094350;28;20442;-71
2022/02/22 11:49:26;;;;;;;24.67;22.90;;;10.60;64.90;;;;;;5093996;28;20468;-72
2022/02/22 11:52:00;;;;;;;25.30;23.70;;;10.50;65.50;;;;;;5094112;28;20467;-72
2022/02/22 11:54:28;;;;;;;23.20;21.90;;;10.30;65.60;;;;;;5094136;28;20454;-72
2022/02/22 11:57:03;;;;;;;23.60;22.10;;;10.40;66.10;;;;;;5093953;28;20478;-72
2022/02/22 11:59:33;;;;;;;25.70;23.60;;;10.50;65.70;;;;;;5093951;28;20518;-72
2022/02/22 12:02:02;;;;;;;25.57;23.57;;;10.60;65.70;;;;;;5093997;28;20467;-72
2022/02/22 12:04:30;;;;;;;25.73;23.47;;;10.60;65.20;;;;;;5093889;28;20546;-72
2022/02/22 12:06:59;;;;;;;23.87;21.97;;;10.80;65.30;;;;;;5093848;28;20497;-72
2022/02/22 12:09:37;;;;;;;23.70;22.10;;;10.90;64.90;;;;;;5092987;28;20446;-72
2022/02/22 12:12:06;;;;;;;24.37;22.40;;;11.10;65.00;;;;;;5093505;28;20477;-72
2022/02/22 12:14:35;;;;;;;24.47;22.47;;;11.40;63.60;;;;;;5093752;28;20446;-72
2022/02/22 12:17:06;;;;;;;26.50;24.33;;;11.50;63.20;;;;;;5093634;28;20881;-72
2022/02/22 12:19:33;;;;;;;24.80;23.20;;;11.70;62.80;;;;;;5093462;28;20864;-72
2022/02/22 12:21:59;;;;;;;24.00;22.40;;;11.50;63.10;;;;;;5093466;28;20472;-72
2022/02/22 12:24:26;;;;;;;24.07;22.33;;;11.40;63.70;;;;;;5093676;28;20489;-72
2022/02/22 12:26:53;;;;;;;24.83;22.80;;;11.30;64.00;;;;;;5093518;28;20532;-72
2022/02/22 12:29:23;;;;;;;23.63;22.07;;;11.20;64.00;;;;;;5093036;28;20488;-72
2022/02/22 12:31:55;;;;;;;24.77;23.07;;;11.00;64.40;;;;;;5093433;28;20477;-72
2022/02/22 12:34:24;;;;;;;24.03;22.43;;;11.10;63.90;;;;;;5093254;28;20453;-72
2022/02/22 12:36:54;;;;;;;25.90;23.63;;;11.30;64.00;;;;;;5093305;28;20478;-72
2022/02/22 12:39:24;;;;;;;25.10;23.07;;;11.40;64.10;;;;;;5093195;28;20458;-72